Pituffik, Greenland

4:21 PM ADT on September 02, 2015 (GMT -0300)
Thule Air Base | | Change Station
CLOSE
Current Station
Airport
Location: Pituffik,
Elevation: 253 ft
Nearby Weather Stations

Elev 253 ft 76.53 °N, 68.75 °W | Updated 23 minutes ago

Clear
Clear
42 °F
Feels Like 38 °F
N
6
Wind Variable Wind from WNW

Today
High -- | Low -- °F
--% Chance of Precip.
Yesterday
High -- | Low -- °F
Precip. -- in
4:53 AM 10:10 PM
Waning Gibbous, 78% visible
Pressure 29.94 in
Visibility 6.2 miles
Clouds Clear
Windchill 38 °F
Dew Point 24 °F
Humidity 50%
Rainfall 0.00 in
Snow Depth Not available.
UV 1 out of 12
Pollen Not available.
Air Quality Not available.
Flu Activity Not available.
METAR BGTL 021858Z AUTO 29005KT 9999 CLR 05/M04 A2998 RMK AO2 SLP137 T00531044
Pressure 29.94 in
Visibility 6.2 miles
Clouds Clear
Windchill 38 °F
Dew Point 24 °F
Humidity 50%
Rainfall 0.00 in
Snow Depth Not available.
UV 1 out of 12
Pollen Not available.
Air Quality Not available.
Flu Activity Not available.
METAR BGTL 021858Z AUTO 29005KT 9999 CLR 05/M04 A2998 RMK AO2 SLP137 T00531044

10-Day Weather Forecast

×

Almanac

Astronomy

Sep. 02, 2015 Rise Set
Actual Time
Civil Twilight
Nautical Twilight
Astronomical Twilight
Moon
Length of Visible Light
Length of Day
Tomorrow will be .
, % of the Moon is Illuminated

Today's Extremes

Country Highs Country Lows

Community

WunderPhotos

Upload Photos

1,851,799 photos uploaded!

WunderBlogs® & News

Nearby

Air Quality

  Air Quality AQ Index Pollutant
Not available.

Snow Depth

Station Depth Elevation

Earthquake Activity

City Distance Mag. Time & Date
Minimum magnitude displayed is 2.5.

Coastal Water Temperatures

Place Temperature

Stations

Nearby Weather Stations

Station Location Temp. Windchill Dew Point Humidity Wind Precip. Elev Updated Type